sensor_id;sensor_type;location;lat;lon;timestamp;pressure;altitude;pressure_sealevel;temperature;humidity
69842;BME280;57138;51.326;-0.068;2023-08-06T00:01:44;99356.56;;;11.72;100.00
69842;BME280;57138;51.326;-0.068;2023-08-06T00:04:09;99355.75;;;11.71;100.00
69842;BME280;57138;51.326;-0.068;2023-08-06T00:06:34;99359.91;;;11.67;100.00
69842;BME280;57138;51.326;-0.068;2023-08-06T00:09:00;99379.88;;;11.71;100.00
69842;BME280;57138;51.326;-0.068;2023-08-06T00:11:25;99386.03;;;11.72;100.00
69842;BME280;57138;51.326;-0.068;2023-08-06T00:13:51;99385.28;;;11.64;100.00
69842;BME280;57138;51.326;-0.068;2023-08-06T00:16:16;99381.75;;;11.64;100.00
69842;BME280;57138;51.326;-0.068;2023-08-06T00:18:42;99397.81;;;11.64;100.00
69842;BME280;57138;51.326;-0.068;2023-08-06T00:21:07;99378.97;;;11.52;100.00
69842;BME280;57138;51.326;-0.068;2023-08-06T00:23:32;99398.72;;;11.58;100.00
69842;BME280;57138;51.326;-0.068;2023-08-06T00:25:58;99387.22;;;11.50;100.00
69842;BME280;57138;51.326;-0.068;2023-08-06T00:28:23;99394.84;;;11.47;100.00
69842;BME280;57138;51.326;-0.068;2023-08-06T00:30:53;99395.88;;;11.46;100.00
69842;BME280;57138;51.326;-0.068;2023-08-06T00:33:19;99417.00;;;11.61;100.00
69842;BME280;57138;51.326;-0.068;2023-08-06T00:35:44;99416.81;;;11.56;100.00
69842;BME280;57138;51.326;-0.068;2023-08-06T00:38:10;99428.97;;;11.58;100.00
69842;BME280;57138;51.326;-0.068;2023-08-06T00:40:35;99406.22;;;11.42;100.00
69842;BME280;57138;51.326;-0.068;2023-08-06T00:43:01;99425.91;;;11.55;100.00
69842;BME280;57138;51.326;-0.068;2023-08-06T00:45:28;99436.63;;;11.55;100.00
69842;BME280;57138;51.326;-0.068;2023-08-06T00:47:55;99425.38;;;11.39;100.00
69842;BME280;57138;51.326;-0.068;2023-08-06T00:50:20;99439.09;;;11.49;100.00
69842;BME280;57138;51.326;-0.068;2023-08-06T00:52:50;99458.03;;;11.55;100.00
69842;BME280;57138;51.326;-0.068;2023-08-06T00:55:16;99457.41;;;11.52;100.00
69842;BME280;57138;51.326;-0.068;2023-08-06T00:57:42;99464.66;;;11.45;99.35
69842;BME280;57138;51.326;-0.068;2023-08-06T01:00:08;99459.75;;;11.42;99.89
69842;BME280;57138;51.326;-0.068;2023-08-06T01:02:34;99461.44;;;11.30;99.00
69842;BME280;57138;51.326;-0.068;2023-08-06T01:04:59;99460.59;;;11.29;99.96
69842;BME280;57138;51.326;-0.068;2023-08-06T01:07:48;99468.84;;;11.28;98.72
69842;BME280;57138;51.326;-0.068;2023-08-06T01:13:27;99488.63;;;11.20;99.24
69842;BME280;57138;51.326;-0.068;2023-08-06T01:15:58;99486.16;;;11.19;99.70
69842;BME280;57138;51.326;-0.068;2023-08-06T01:18:25;99474.03;;;11.09;99.21
69842;BME280;57138;51.326;-0.068;2023-08-06T01:20:51;99487.00;;;11.12;100.00
69842;BME280;57138;51.326;-0.068;2023-08-06T01:23:17;99482.91;;;11.10;100.00
69842;BME280;57138;51.326;-0.068;2023-08-06T01:28:30;99499.34;;;11.13;100.00
69842;BME280;57138;51.326;-0.068;2023-08-06T01:30:59;99497.09;;;11.10;100.00
69842;BME280;57138;51.326;-0.068;2023-08-06T01:33:27;99502.03;;;11.13;100.00
69842;BME280;57138;51.326;-0.068;2023-08-06T01:35:56;99512.34;;;11.10;100.00
69842;BME280;57138;51.326;-0.068;2023-08-06T01:38:22;99507.00;;;11.03;100.00
69842;BME280;57138;51.326;-0.068;2023-08-06T01:40:48;99515.81;;;11.10;100.00
69842;BME280;57138;51.326;-0.068;2023-08-06T01:43:13;99515.25;;;11.02;100.00
69842;BME280;57138;51.326;-0.068;2023-08-06T01:45:38;99534.75;;;11.09;100.00
69842;BME280;57138;51.326;-0.068;2023-08-06T01:48:04;99524.06;;;11.02;100.00
69842;BME280;57138;51.326;-0.068;2023-08-06T01:50:29;99519.16;;;10.99;100.00
69842;BME280;57138;51.326;-0.068;2023-08-06T01:52:54;99512.56;;;10.95;100.00
69842;BME280;57138;51.326;-0.068;2023-08-06T01:55:20;99520.38;;;10.96;100.00
69842;BME280;57138;51.326;-0.068;2023-08-06T01:57:45;99522.84;;;10.98;100.00
69842;BME280;57138;51.326;-0.068;2023-08-06T02:00:11;99528.59;;;10.95;100.00
69842;BME280;57138;51.326;-0.068;2023-08-06T02:02:36;99526.97;;;10.94;100.00
69842;BME280;57138;51.326;-0.068;2023-08-06T02:05:02;99545.50;;;10.95;100.00
69842;BME280;57138;51.326;-0.068;2023-08-06T02:07:27;99531.09;;;10.90;100.00
69842;BME280;57138;51.326;-0.068;2023-08-06T02:09:52;99541.78;;;10.90;100.00
69842;BME280;57138;51.326;-0.068;2023-08-06T02:12:18;99543.44;;;10.91;100.00
69842;BME280;57138;51.326;-0.068;2023-08-06T02:14:43;99521.22;;;10.77;100.00
69842;BME280;57138;51.326;-0.068;2023-08-06T02:17:08;99520.81;;;10.73;100.00
69842;BME280;57138;51.326;-0.068;2023-08-06T02:19:34;99551.47;;;10.91;100.00
69842;BME280;57138;51.326;-0.068;2023-08-06T02:21:59;99541.38;;;10.86;100.00
69842;BME280;57138;51.326;-0.068;2023-08-06T02:24:25;99521.66;;;10.74;100.00
69842;BME280;57138;51.326;-0.068;2023-08-06T02:26:50;99540.94;;;10.83;100.00
69842;BME280;57138;51.326;-0.068;2023-08-06T02:29:17;99552.47;;;10.90;100.00
69842;BME280;57138;51.326;-0.068;2023-08-06T02:31:42;99556.38;;;10.87;100.00
69842;BME280;57138;51.326;-0.068;2023-08-06T02:34:08;99554.97;;;10.85;100.00
69842;BME280;57138;51.326;-0.068;2023-08-06T02:36:33;99561.53;;;10.82;100.00
69842;BME280;57138;51.326;-0.068;2023-08-06T02:38:58;99560.28;;;10.78;100.00
69842;BME280;57138;51.326;-0.068;2023-08-06T02:41:24;99561.97;;;10.72;100.00
69842;BME280;57138;51.326;-0.068;2023-08-06T02:43:49;99555.78;;;10.65;100.00
69842;BME280;57138;51.326;-0.068;2023-08-06T02:46:14;99572.25;;;10.75;100.00
69842;BME280;57138;51.326;-0.068;2023-08-06T02:48:40;99572.84;;;10.71;100.00
69842;BME280;57138;51.326;-0.068;2023-08-06T02:51:05;99563.19;;;10.70;100.00
69842;BME280;57138;51.326;-0.068;2023-08-06T02:53:30;99552.09;;;10.66;100.00
69842;BME280;57138;51.326;-0.068;2023-08-06T02:55:56;99560.31;;;10.65;100.00
69842;BME280;57138;51.326;-0.068;2023-08-06T02:58:22;99549.81;;;10.50;100.00
69842;BME280;57138;51.326;-0.068;2023-08-06T03:01:06;99559.47;;;10.51;100.00
69842;BME280;57138;51.326;-0.068;2023-08-06T03:03:32;99574.06;;;10.55;100.00
69842;BME280;57138;51.326;-0.068;2023-08-06T03:05:58;99533.91;;;10.28;100.00
69842;BME280;57138;51.326;-0.068;2023-08-06T03:08:24;99575.91;;;10.48;100.00
69842;BME280;57138;51.326;-0.068;2023-08-06T03:10:50;99564.78;;;10.37;100.00
69842;BME280;57138;51.326;-0.068;2023-08-06T03:13:16;99571.78;;;10.38;100.00
69842;BME280;57138;51.326;-0.068;2023-08-06T03:15:42;99575.88;;;10.34;100.00
69842;BME280;57138;51.326;-0.068;2023-08-06T03:18:07;99579.13;;;10.30;100.00
69842;BME280;57138;51.326;-0.068;2023-08-06T03:20:32;99568.44;;;10.23;100.00
69842;BME280;57138;51.326;-0.068;2023-08-06T03:22:58;99556.50;;;10.12;100.00
69842;BME280;57138;51.326;-0.068;2023-08-06T03:25:23;99573.78;;;10.16;100.00
69842;BME280;57138;51.326;-0.068;2023-08-06T03:27:48;99530.78;;;9.91;100.00
69842;BME280;57138;51.326;-0.068;2023-08-06T03:30:14;99569.66;;;10.14;100.00
69842;BME280;57138;51.326;-0.068;2023-08-06T03:32:39;99559.97;;;9.99;100.00
69842;BME280;57138;51.326;-0.068;2023-08-06T03:35:05;99569.63;;;10.07;100.00
69842;BME280;57138;51.326;-0.068;2023-08-06T03:37:30;99562.63;;;9.99;100.00
69842;BME280;57138;51.326;-0.068;2023-08-06T03:39:57;99536.66;;;9.80;100.00
69842;BME280;57138;51.326;-0.068;2023-08-06T03:42:24;99551.47;;;9.82;100.00
69842;BME280;57138;51.326;-0.068;2023-08-06T03:44:49;99564.03;;;9.88;100.00
69842;BME280;57138;51.326;-0.068;2023-08-06T03:47:14;99571.03;;;9.89;100.00
69842;BME280;57138;51.326;-0.068;2023-08-06T03:49:40;99593.03;;;9.98;100.00
69842;BME280;57138;51.326;-0.068;2023-08-06T03:52:05;99590.53;;;9.97;100.00
69842;BME280;57138;51.326;-0.068;2023-08-06T03:54:31;99595.47;;;9.93;100.00
69842;BME280;57138;51.326;-0.068;2023-08-06T03:56:56;99587.66;;;9.85;100.00
69842;BME280;57138;51.326;-0.068;2023-08-06T03:59:21;99576.31;;;9.76;100.00
69842;BME280;57138;51.326;-0.068;2023-08-06T04:01:47;99580.19;;;9.74;100.00
69842;BME280;57138;51.326;-0.068;2023-08-06T04:04:12;99572.34;;;9.65;100.00
69842;BME280;57138;51.326;-0.068;2023-08-06T04:06:38;99582.00;;;9.66;100.00
69842;BME280;57138;51.326;-0.068;2023-08-06T04:09:03;99594.56;;;9.73;100.00
69842;BME280;57138;51.326;-0.068;2023-08-06T04:11:29;99602.78;;;9.71;100.00
69842;BME280;57138;51.326;-0.068;2023-08-06T04:13:54;99590.84;;;9.67;100.00
69842;BME280;57138;51.326;-0.068;2023-08-06T04:16:21;99594.31;;;9.67;100.00
69842;BME280;57138;51.326;-0.068;2023-08-06T04:18:46;99614.28;;;9.71;100.00
69842;BME280;57138;51.326;-0.068;2023-08-06T04:21:12;99614.28;;;9.71;100.00
69842;BME280;57138;51.326;-0.068;2023-08-06T04:23:38;99621.66;;;9.69;100.00
69842;BME280;57138;51.326;-0.068;2023-08-06T04:26:03;99611.31;;;9.60;100.00
69842;BME280;57138;51.326;-0.068;2023-08-06T04:28:28;99623.69;;;9.67;100.00
69842;BME280;57138;51.326;-0.068;2023-08-06T04:30:54;99624.72;;;9.66;100.00
69842;BME280;57138;51.326;-0.068;2023-08-06T04:33:20;99620.78;;;9.62;100.00
69842;BME280;57138;51.326;-0.068;2023-08-06T04:35:45;99602.28;;;9.54;100.00
69842;BME280;57138;51.326;-0.068;2023-08-06T04:38:10;99641.34;;;9.68;100.00
69842;BME280;57138;51.326;-0.068;2023-08-06T04:40:36;99626.53;;;9.59;100.00
69842;BME280;57138;51.326;-0.068;2023-08-06T04:43:02;99642.38;;;9.67;100.00
69842;BME280;57138;51.326;-0.068;2023-08-06T04:45:27;99634.72;;;9.58;100.00
69842;BME280;57138;51.326;-0.068;2023-08-06T04:47:53;99611.84;;;9.42;100.00
69842;BME280;57138;51.326;-0.068;2023-08-06T04:50:19;99633.06;;;9.57;100.00
69842;BME280;57138;51.326;-0.068;2023-08-06T04:52:45;99651.81;;;9.63;100.00
69842;BME280;57138;51.326;-0.068;2023-08-06T04:55:11;99639.25;;;9.57;100.00
69842;BME280;57138;51.326;-0.068;2023-08-06T04:57:37;99618.19;;;9.41;100.00
69842;BME280;57138;51.326;-0.068;2023-08-06T05:00:03;99660.63;;;9.64;100.00
69842;BME280;57138;51.326;-0.068;2023-08-06T05:02:29;99648.25;;;9.56;100.00
69842;BME280;57138;51.326;-0.068;2023-08-06T05:04:57;99670.09;;;9.66;100.00
69842;BME280;57138;51.326;-0.068;2023-08-06T05:07:23;99655.25;;;9.57;100.00
69842;BME280;57138;51.326;-0.068;2023-08-06T05:09:48;99630.53;;;9.42;100.00
69842;BME280;57138;51.326;-0.068;2023-08-06T05:12:15;99676.25;;;9.67;100.00
69842;BME280;57138;51.326;-0.068;2023-08-06T05:14:40;99650.72;;;9.51;100.00
69842;BME280;57138;51.326;-0.068;2023-08-06T05:17:05;99678.72;;;9.68;100.00
69842;BME280;57138;51.326;-0.068;2023-08-06T05:19:31;99661.03;;;9.61;100.00
69842;BME280;57138;51.326;-0.068;2023-08-06T05:21:56;99666.34;;;9.61;100.00
69842;BME280;57138;51.326;-0.068;2023-08-06T05:24:22;99684.69;;;9.70;100.00
69842;BME280;57138;51.326;-0.068;2023-08-06T05:26:47;99692.75;;;9.77;100.00
69842;BME280;57138;51.326;-0.068;2023-08-06T05:29:13;99671.72;;;9.67;100.00
69842;BME280;57138;51.326;-0.068;2023-08-06T05:31:39;99695.28;;;9.92;100.00
69842;BME280;57138;51.326;-0.068;2023-08-06T05:34:04;99691.19;;;9.89;100.00
69842;BME280;57138;51.326;-0.068;2023-08-06T05:36:30;99688.34;;;9.98;100.00
69842;BME280;57138;51.326;-0.068;2023-08-06T05:38:55;99682.81;;;9.99;100.00
69842;BME280;57138;51.326;-0.068;2023-08-06T05:41:21;99709.44;;;10.21;100.00
69842;BME280;57138;51.326;-0.068;2023-08-06T05:43:46;99708.19;;;10.23;100.00
69842;BME280;57138;51.326;-0.068;2023-08-06T05:46:11;99699.00;;;10.33;100.00
69842;BME280;57138;51.326;-0.068;2023-08-06T05:48:37;99692.78;;;10.25;100.00
69842;BME280;57138;51.326;-0.068;2023-08-06T05:51:02;99716.31;;;10.43;100.00
69842;BME280;57138;51.326;-0.068;2023-08-06T05:53:28;99716.75;;;10.47;100.00
69842;BME280;57138;51.326;-0.068;2023-08-06T05:55:53;99715.72;;;10.48;100.00
69842;BME280;57138;51.326;-0.068;2023-08-06T05:58:18;99715.91;;;10.47;100.00
69842;BME280;57138;51.326;-0.068;2023-08-06T06:00:45;99725.19;;;10.51;100.00
69842;BME280;57138;51.326;-0.068;2023-08-06T06:03:11;99722.72;;;10.56;100.00
69842;BME280;57138;51.326;-0.068;2023-08-06T06:05:39;99714.69;;;10.49;100.00
69842;BME280;57138;51.326;-0.068;2023-08-06T06:08:05;99700.28;;;10.43;100.00
69842;BME280;57138;51.326;-0.068;2023-08-06T06:10:30;99688.97;;;10.41;100.00
69842;BME280;57138;51.326;-0.068;2023-08-06T06:12:56;99709.59;;;10.61;100.00
69842;BME280;57138;51.326;-0.068;2023-08-06T06:15:21;99742.16;;;10.85;100.00
69842;BME280;57138;51.326;-0.068;2023-08-06T06:17:46;99743.19;;;10.90;100.00
69842;BME280;57138;51.326;-0.068;2023-08-06T06:20:12;99722.81;;;10.83;100.00
69842;BME280;57138;51.326;-0.068;2023-08-06T06:22:37;99744.44;;;11.01;100.00
69842;BME280;57138;51.326;-0.068;2023-08-06T06:25:03;99735.59;;;11.01;100.00
69842;BME280;57138;51.326;-0.068;2023-08-06T06:27:28;99753.72;;;11.12;100.00
69842;BME280;57138;51.326;-0.068;2023-08-06T06:29:54;99748.38;;;11.19;100.00
69842;BME280;57138;51.326;-0.068;2023-08-06T06:32:21;99750.88;;;11.27;100.00
69842;BME280;57138;51.326;-0.068;2023-08-06T06:34:46;99756.63;;;11.37;100.00
69842;BME280;57138;51.326;-0.068;2023-08-06T06:37:12;99749.25;;;11.46;100.00
69842;BME280;57138;51.326;-0.068;2023-08-06T06:39:37;99729.88;;;11.37;100.00
69842;BME280;57138;51.326;-0.068;2023-08-06T06:42:02;99757.88;;;11.61;100.00
69842;BME280;57138;51.326;-0.068;2023-08-06T06:44:28;99743.88;;;11.66;100.00
69842;BME280;57138;51.326;-0.068;2023-08-06T06:46:53;99754.97;;;11.76;100.00
69842;BME280;57138;51.326;-0.068;2023-08-06T06:49:19;99750.25;;;11.85;100.00
69842;BME280;57138;51.326;-0.068;2023-08-06T06:51:44;99750.44;;;11.90;100.00
69842;BME280;57138;51.326;-0.068;2023-08-06T06:54:09;99728.59;;;11.86;100.00
69842;BME280;57138;51.326;-0.068;2023-08-06T06:56:35;99776.97;;;12.18;100.00
69842;BME280;57138;51.326;-0.068;2023-08-06T06:59:00;99779.88;;;12.23;99.50
69842;BME280;57138;51.326;-0.068;2023-08-06T07:01:26;99753.09;;;12.10;100.00
69842;BME280;57138;51.326;-0.068;2023-08-06T07:03:51;99784.19;;;12.31;100.00
69842;BME280;57138;51.326;-0.068;2023-08-06T07:06:17;99768.47;;;12.41;100.00
69842;BME280;57138;51.326;-0.068;2023-08-06T07:08:44;99768.88;;;12.45;100.00
69842;BME280;57138;51.326;-0.068;2023-08-06T07:11:09;99774.00;;;12.53;100.00
69842;BME280;57138;51.326;-0.068;2023-08-06T07:13:35;99790.66;;;12.69;100.00
69842;BME280;57138;51.326;-0.068;2023-08-06T07:16:00;99770.81;;;12.70;99.30
69842;BME280;57138;51.326;-0.068;2023-08-06T07:18:26;99787.72;;;12.77;100.00
69842;BME280;57138;51.326;-0.068;2023-08-06T07:20:52;99780.88;;;12.88;100.00
69842;BME280;57138;51.326;-0.068;2023-08-06T07:23:20;99780.22;;;12.92;99.39
69842;BME280;57138;51.326;-0.068;2023-08-06T07:25:46;99782.88;;;12.99;99.42
69842;BME280;57138;51.326;-0.068;2023-08-06T07:28:12;99789.66;;;13.02;99.22
69842;BME280;57138;51.326;-0.068;2023-08-06T07:30:39;99793.91;;;13.16;100.00
69842;BME280;57138;51.326;-0.068;2023-08-06T07:33:04;99782.59;;;13.14;99.92
69842;BME280;57138;51.326;-0.068;2023-08-06T07:35:30;99777.97;;;13.21;98.43
69842;BME280;57138;51.326;-0.068;2023-08-06T07:37:56;99794.88;;;13.28;98.41
69842;BME280;57138;51.326;-0.068;2023-08-06T07:40:22;99790.59;;;13.21;98.36
69842;BME280;57138;51.326;-0.068;2023-08-06T07:42:47;99793.00;;;13.29;98.69
69842;BME280;57138;51.326;-0.068;2023-08-06T07:45:13;99813.19;;;13.45;98.87
69842;BME280;57138;51.326;-0.068;2023-08-06T07:47:39;99813.78;;;13.47;98.83
69842;BME280;57138;51.326;-0.068;2023-08-06T07:50:05;99800.56;;;13.45;99.77
69842;BME280;57138;51.326;-0.068;2023-08-06T07:52:31;99803.97;;;13.59;95.37
69842;BME280;57138;51.326;-0.068;2023-08-06T07:54:56;99809.72;;;13.63;96.80
69842;BME280;57138;51.326;-0.068;2023-08-06T07:57:22;99821.03;;;13.72;96.13
69842;BME280;57138;51.326;-0.068;2023-08-06T07:59:47;99816.03;;;13.75;95.70
69842;BME280;57138;51.326;-0.068;2023-08-06T08:02:13;99790.28;;;13.68;97.87
69842;BME280;57138;51.326;-0.068;2023-08-06T08:04:39;99817.19;;;13.86;95.76
69842;BME280;57138;51.326;-0.068;2023-08-06T08:07:05;99813.41;;;13.94;97.38
69842;BME280;57138;51.326;-0.068;2023-08-06T08:09:31;99809.63;;;14.01;95.09
69842;BME280;57138;51.326;-0.068;2023-08-06T08:11:56;99814.88;;;14.15;94.69
69842;BME280;57138;51.326;-0.068;2023-08-06T08:14:22;99812.13;;;14.22;95.39
69842;BME280;57138;51.326;-0.068;2023-08-06T08:16:47;99811.16;;;14.34;95.07
69842;BME280;57138;51.326;-0.068;2023-08-06T08:19:13;99822.81;;;14.47;92.34
69842;BME280;57138;51.326;-0.068;2023-08-06T08:21:38;99815.50;;;14.35;91.60
69842;BME280;57138;51.326;-0.068;2023-08-06T08:24:04;99828.28;;;14.40;90.31
69842;BME280;57138;51.326;-0.068;2023-08-06T08:26:29;99829.53;;;14.37;92.69
69842;BME280;57138;51.326;-0.068;2023-08-06T08:28:55;99827.16;;;14.48;91.09
69842;BME280;57138;51.326;-0.068;2023-08-06T08:31:21;99820.22;;;14.59;92.87
69842;BME280;57138;51.326;-0.068;2023-08-06T08:33:47;99829.63;;;14.86;90.38
69842;BME280;57138;51.326;-0.068;2023-08-06T08:36:13;99820.78;;;14.98;89.79
69842;BME280;57138;51.326;-0.068;2023-08-06T08:38:38;99816.28;;;15.10;90.65
69842;BME280;57138;51.326;-0.068;2023-08-06T08:41:05;99821.13;;;15.20;84.43
69842;BME280;57138;51.326;-0.068;2023-08-06T08:43:31;99829.78;;;15.22;83.13
69842;BME280;57138;51.326;-0.068;2023-08-06T08:45:58;99827.59;;;15.31;89.13
69842;BME280;57138;51.326;-0.068;2023-08-06T08:48:24;99823.75;;;15.38;88.72
69842;BME280;57138;51.326;-0.068;2023-08-06T08:50:52;99820.00;;;15.39;87.35
69842;BME280;57138;51.326;-0.068;2023-08-06T08:53:18;99817.63;;;15.31;87.37
69842;BME280;57138;51.326;-0.068;2023-08-06T08:55:47;99829.00;;;15.33;87.65
69842;BME280;57138;51.326;-0.068;2023-08-06T08:58:14;99804.63;;;15.28;86.49
69842;BME280;57138;51.326;-0.068;2023-08-06T09:00:42;99826.63;;;15.55;85.38
69842;BME280;57138;51.326;-0.068;2023-08-06T09:03:08;99842.03;;;15.78;85.85
69842;BME280;57138;51.326;-0.068;2023-08-06T09:05:33;99816.81;;;15.85;82.71
69842;BME280;57138;51.326;-0.068;2023-08-06T09:08:03;99835.00;;;16.01;77.90
69842;BME280;57138;51.326;-0.068;2023-08-06T09:10:30;99821.41;;;16.08;82.64
69842;BME280;57138;51.326;-0.068;2023-08-06T09:12:57;99835.63;;;16.27;80.33
69842;BME280;57138;51.326;-0.068;2023-08-06T09:15:27;99837.94;;;16.23;79.21
69842;BME280;57138;51.326;-0.068;2023-08-06T09:17:53;99839.25;;;16.21;80.20
69842;BME280;57138;51.326;-0.068;2023-08-06T09:20:19;99852.03;;;16.13;79.41
69842;BME280;57138;51.326;-0.068;2023-08-06T09:22:45;99851.78;;;16.03;78.32
69842;BME280;57138;51.326;-0.068;2023-08-06T09:25:11;99854.00;;;15.94;80.31
69842;BME280;57138;51.326;-0.068;2023-08-06T09:27:39;99807.97;;;15.66;79.91
69842;BME280;57138;51.326;-0.068;2023-08-06T09:30:06;99835.00;;;15.77;80.72
69842;BME280;57138;51.326;-0.068;2023-08-06T09:32:48;99861.25;;;15.94;80.86
69842;BME280;57138;51.326;-0.068;2023-08-06T09:35:17;99848.63;;;15.94;80.69
69842;BME280;57138;51.326;-0.068;2023-08-06T09:37:44;99850.72;;;15.92;80.59
69842;BME280;57138;51.326;-0.068;2023-08-06T09:40:27;99865.16;;;15.98;80.03
69842;BME280;57138;51.326;-0.068;2023-08-06T09:42:53;99870.19;;;15.94;80.20
69842;BME280;57138;51.326;-0.068;2023-08-06T09:45:19;99847.19;;;15.80;80.00
69842;BME280;57138;51.326;-0.068;2023-08-06T09:47:44;99862.19;;;15.88;78.40
69842;BME280;57138;51.326;-0.068;2023-08-06T09:50:19;99871.13;;;16.00;77.06
69842;BME280;57138;51.326;-0.068;2023-08-06T09:52:47;99866.22;;;16.09;78.93
69842;BME280;57138;51.326;-0.068;2023-08-06T09:55:14;99849.22;;;16.08;77.79
69842;BME280;57138;51.326;-0.068;2023-08-06T09:57:41;99872.19;;;16.23;76.25
69842;BME280;57138;51.326;-0.068;2023-08-06T10:00:08;99863.03;;;16.12;76.27
69842;BME280;57138;51.326;-0.068;2023-08-06T10:02:39;99875.84;;;16.28;77.08
69842;BME280;57138;51.326;-0.068;2023-08-06T10:05:08;99866.81;;;16.23;74.85
69842;BME280;57138;51.326;-0.068;2023-08-06T10:07:37;99851.22;;;16.13;76.72
69842;BME280;57138;51.326;-0.068;2023-08-06T10:10:05;99875.47;;;16.25;75.41
69842;BME280;57138;51.326;-0.068;2023-08-06T10:12:39;99886.63;;;16.28;76.20
69842;BME280;57138;51.326;-0.068;2023-08-06T10:15:09;99882.75;;;16.36;74.52
69842;BME280;57138;51.326;-0.068;2023-08-06T10:17:39;99869.25;;;16.36;74.85
69842;BME280;57138;51.326;-0.068;2023-08-06T10:20:07;99869.47;;;16.34;75.32
69842;BME280;57138;51.326;-0.068;2023-08-06T10:22:34;99890.25;;;16.58;75.78
69842;BME280;57138;51.326;-0.068;2023-08-06T10:25:01;99898.94;;;16.60;73.82
69842;BME280;57138;51.326;-0.068;2023-08-06T10:27:30;99905.38;;;16.59;72.99
69842;BME280;57138;51.326;-0.068;2023-08-06T10:32:56;99901.38;;;16.73;74.57
69842;BME280;57138;51.326;-0.068;2023-08-06T10:35:48;99907.25;;;16.82;74.07
69842;BME280;57138;51.326;-0.068;2023-08-06T10:38:20;99888.91;;;16.84;74.12
69842;BME280;57138;51.326;-0.068;2023-08-06T10:43:36;99904.28;;;17.07;75.80
69842;BME280;57138;51.326;-0.068;2023-08-06T10:46:09;99886.41;;;17.06;74.86
69842;BME280;57138;51.326;-0.068;2023-08-06T10:48:37;99916.09;;;17.18;72.76
69842;BME280;57138;51.326;-0.068;2023-08-06T10:51:07;99909.19;;;17.22;72.31
69842;BME280;57138;51.326;-0.068;2023-08-06T10:53:33;99906.81;;;17.25;72.17
69842;BME280;57138;51.326;-0.068;2023-08-06T10:55:58;99900.78;;;17.35;72.15
69842;BME280;57138;51.326;-0.068;2023-08-06T10:58:24;99904.56;;;17.51;70.90
69842;BME280;57138;51.326;-0.068;2023-08-06T11:00:50;99880.84;;;17.53;68.80
69842;BME280;57138;51.326;-0.068;2023-08-06T11:03:15;99901.47;;;17.88;68.17
69842;BME280;57138;51.326;-0.068;2023-08-06T11:05:41;99898.97;;;17.99;68.02
69842;BME280;57138;51.326;-0.068;2023-08-06T11:08:23;99899.84;;;18.04;68.30
69842;BME280;57138;51.326;-0.068;2023-08-06T11:10:49;99900.09;;;18.03;66.61
69842;BME280;57138;51.326;-0.068;2023-08-06T11:13:17;99890.16;;;17.91;67.58
69842;BME280;57138;51.326;-0.068;2023-08-06T11:15:43;99895.03;;;17.89;66.29
69842;BME280;57138;51.326;-0.068;2023-08-06T11:18:09;99884.09;;;17.84;66.79
69842;BME280;57138;51.326;-0.068;2023-08-06T11:20:34;99892.19;;;17.84;65.71
69842;BME280;57138;51.326;-0.068;2023-08-06T11:23:00;99896.66;;;17.90;67.07
69842;BME280;57138;51.326;-0.068;2023-08-06T11:25:25;99906.28;;;17.86;66.82
69842;BME280;57138;51.326;-0.068;2023-08-06T11:27:51;99918.75;;;17.87;67.05
69842;BME280;57138;51.326;-0.068;2023-08-06T11:30:16;99902.66;;;17.81;65.37
69842;BME280;57138;51.326;-0.068;2023-08-06T11:32:45;99908.19;;;18.03;66.70
69842;BME280;57138;51.326;-0.068;2023-08-06T11:35:12;99891.41;;;18.01;65.21
69842;BME280;57138;51.326;-0.068;2023-08-06T11:37:39;99915.50;;;18.19;63.23
69842;BME280;57138;51.326;-0.068;2023-08-06T11:40:08;99903.03;;;18.18;63.76
69842;BME280;57138;51.326;-0.068;2023-08-06T11:42:36;99904.03;;;18.12;64.50
69842;BME280;57138;51.326;-0.068;2023-08-06T11:45:05;99896.16;;;18.10;64.89
69842;BME280;57138;51.326;-0.068;2023-08-06T11:47:30;99898.63;;;18.12;63.60
69842;BME280;57138;51.326;-0.068;2023-08-06T11:49:56;99919.44;;;18.11;64.21
69842;BME280;57138;51.326;-0.068;2023-08-06T11:52:24;99916.31;;;18.03;62.90
69842;BME280;57138;51.326;-0.068;2023-08-06T11:55:06;99903.13;;;17.89;61.46
69842;BME280;57138;51.326;-0.068;2023-08-06T11:57:37;99909.78;;;17.70;63.58
69842;BME280;57138;51.326;-0.068;2023-08-06T12:00:07;99920.34;;;17.71;63.19
69842;BME280;57138;51.326;-0.068;2023-08-06T12:02:33;99888.00;;;17.59;64.83
69842;BME280;57138;51.326;-0.068;2023-08-06T12:05:09;99885.78;;;17.56;65.20
69842;BME280;57138;51.326;-0.068;2023-08-06T12:07:40;99918.09;;;17.80;65.30
69842;BME280;57138;51.326;-0.068;2023-08-06T12:10:07;99897.44;;;17.74;65.29
69842;BME280;57138;51.326;-0.068;2023-08-06T12:12:32;99921.25;;;17.89;63.85
69842;BME280;57138;51.326;-0.068;2023-08-06T12:14:58;99894.00;;;17.78;63.92
69842;BME280;57138;51.326;-0.068;2023-08-06T12:17:24;99910.06;;;17.85;64.73
69842;BME280;57138;51.326;-0.068;2023-08-06T12:19:50;99902.31;;;17.89;64.37
69842;BME280;57138;51.326;-0.068;2023-08-06T12:22:16;99895.03;;;17.89;62.23
69842;BME280;57138;51.326;-0.068;2023-08-06T12:24:43;99909.28;;;18.02;62.82
69842;BME280;57138;51.326;-0.068;2023-08-06T12:27:09;99921.72;;;18.03;61.43
69842;BME280;57138;51.326;-0.068;2023-08-06T12:29:35;99909.94;;;18.09;62.17
69842;BME280;57138;51.326;-0.068;2023-08-06T12:32:03;99899.44;;;18.29;63.34
69842;BME280;57138;51.326;-0.068;2023-08-06T12:34:29;99914.13;;;18.73;61.76
69842;BME280;57138;51.326;-0.068;2023-08-06T12:36:54;99903.41;;;19.00;60.75
69842;BME280;57138;51.326;-0.068;2023-08-06T12:39:20;99891.50;;;19.23;60.47
69842;BME280;57138;51.326;-0.068;2023-08-06T12:41:45;99911.19;;;19.40;59.49
69842;BME280;57138;51.326;-0.068;2023-08-06T12:44:12;99910.69;;;19.44;59.20
69842;BME280;57138;51.326;-0.068;2023-08-06T12:46:37;99884.44;;;19.22;58.08
69842;BME280;57138;51.326;-0.068;2023-08-06T12:49:03;99913.28;;;19.33;58.19
69842;BME280;57138;51.326;-0.068;2023-08-06T12:51:29;99917.69;;;19.39;57.07
69842;BME280;57138;51.326;-0.068;2023-08-06T12:53:54;99921.88;;;19.52;58.61